createdAt,value
2022-12-13T00:01:17.545Z,51.62
2022-12-13T00:06:12.601Z,52.01
2022-12-13T00:11:08.167Z,51.95
2022-12-13T00:16:06.722Z,52.04
2022-12-13T00:20:59.837Z,52.07
2022-12-13T00:25:53.232Z,52.10
2022-12-13T00:30:46.615Z,51.74
2022-12-13T00:35:43.266Z,52.01
2022-12-13T00:40:37.214Z,51.84
2022-12-13T00:45:31.236Z,51.88
2022-12-13T00:50:24.707Z,52.52
2022-12-13T00:55:18.734Z,52.19
2022-12-13T01:00:14.025Z,51.98
2022-12-13T01:05:08.742Z,52.17
2022-12-13T01:10:02.984Z,52.23
2022-12-13T01:14:56.601Z,52.30
2022-12-13T01:19:50.590Z,52.16
2022-12-13T01:24:43.798Z,52.14
2022-12-13T01:29:37.548Z,51.95
2022-12-13T01:34:31.248Z,51.96
2022-12-13T01:39:26.605Z,51.74
2022-12-13T01:44:53.480Z,51.96
2022-12-13T01:49:47.447Z,51.76
2022-12-13T01:54:47.098Z,51.93
2022-12-13T01:59:42.391Z,51.77
2022-12-13T02:04:44.029Z,51.79
2022-12-13T02:09:40.168Z,51.75
2022-12-13T02:14:36.051Z,51.79
2022-12-13T02:19:35.460Z,51.63
2022-12-13T02:25:22.905Z,51.67
2022-12-13T02:30:27.206Z,51.75
2022-12-13T02:36:01.832Z,51.56
2022-12-13T02:41:04.696Z,51.54
2022-12-13T02:46:03.346Z,51.68
2022-12-13T02:50:59.301Z,51.66
2022-12-13T02:55:53.365Z,51.53
2022-12-13T03:00:52.161Z,51.22
2022-12-13T03:06:19.218Z,51.48
2022-12-13T03:11:16.425Z,51.55
2022-12-13T03:16:13.249Z,51.31
2022-12-13T03:21:09.613Z,51.36
2022-12-13T03:26:11.566Z,51.49
2022-12-13T03:31:04.648Z,51.21
2022-12-13T03:35:58.761Z,51.19
2022-12-13T03:40:54.920Z,51.40
2022-12-13T03:45:49.361Z,51.08
2022-12-13T03:50:43.683Z,51.10
2022-12-13T03:55:37.456Z,50.73
2022-12-13T04:00:31.128Z,51.02
2022-12-13T04:05:24.494Z,50.58
2022-12-13T04:10:25.347Z,50.65
2022-12-13T04:15:19.370Z,50.87
2022-12-13T04:20:14.031Z,51.06
2022-12-13T04:25:08.634Z,50.98
2022-12-13T04:30:02.267Z,51.07
2022-12-13T04:35:01.097Z,50.96
2022-12-13T04:40:00.740Z,50.69
2022-12-13T04:44:54.443Z,50.86
2022-12-13T04:49:48.582Z,50.58
2022-12-13T04:54:42.386Z,50.84
2022-12-13T04:59:37.137Z,50.65
2022-12-13T05:04:33.266Z,50.40
2022-12-13T05:09:26.759Z,50.73
2022-12-13T05:14:23.534Z,50.46
2022-12-13T05:19:17.785Z,50.42
2022-12-13T05:24:11.210Z,50.22
2022-12-13T05:29:04.804Z,50.19
2022-12-13T05:34:01.540Z,49.79
2022-12-13T05:38:55.398Z,49.54
2022-12-13T05:43:49.159Z,49.34
2022-12-13T05:48:42.520Z,49.33
2022-12-13T05:53:36.272Z,49.12
2022-12-13T05:58:29.773Z,49.10
2022-12-13T06:03:30.226Z,49.05
2022-12-13T06:08:25.573Z,49.16
2022-12-13T06:13:31.917Z,49.08
2022-12-13T06:18:26.507Z,48.87
2022-12-13T06:23:20.610Z,48.72
2022-12-13T06:28:14.791Z,49.02
2022-12-13T06:33:08.550Z,48.56
2022-12-13T06:38:02.157Z,48.62
2022-12-13T06:42:55.950Z,48.34
2022-12-13T06:47:50.302Z,48.33
2022-12-13T06:52:44.013Z,48.45
2022-12-13T06:57:37.867Z,47.98
2022-12-13T07:02:33.727Z,47.81
2022-12-13T07:07:27.882Z,47.86
2022-12-13T07:12:21.495Z,47.71
2022-12-13T07:17:33.101Z,47.57
2022-12-13T07:22:27.532Z,47.69
2022-12-13T07:27:21.101Z,47.18
2022-12-13T07:32:15.963Z,46.66
2022-12-13T07:37:29.809Z,44.53
2022-12-13T07:42:23.592Z,44.11
2022-12-13T07:47:17.226Z,42.78
2022-12-13T07:52:13.254Z,41.75
2022-12-13T07:57:07.147Z,41.54
2022-12-13T08:02:01.764Z,40.93
2022-12-13T08:06:55.466Z,40.42
2022-12-13T08:11:49.147Z,39.92
2022-12-13T08:16:43.401Z,39.66
2022-12-13T08:21:58.555Z,39.13
2022-12-13T08:26:53.626Z,40.69
2022-12-13T08:31:47.652Z,42.12
2022-12-13T08:36:41.513Z,42.32
2022-12-13T08:41:39.161Z,42.79
2022-12-13T08:46:32.851Z,43.10
2022-12-13T08:51:29.531Z,43.27
2022-12-13T08:56:26.933Z,43.52
2022-12-13T09:01:20.955Z,43.77
2022-12-13T09:06:16.740Z,44.02
2022-12-13T09:11:20.832Z,44.08
2022-12-13T09:16:24.664Z,44.38
2022-12-13T09:21:22.014Z,44.39
2022-12-13T09:26:16.800Z,44.68
2022-12-13T09:31:12.755Z,44.59
2022-12-13T09:36:07.851Z,44.71
2022-12-13T09:41:10.294Z,45.00
2022-12-13T09:46:13.286Z,44.90
2022-12-13T09:51:28.631Z,45.28
2022-12-13T09:56:30.279Z,45.45
2022-12-13T10:01:24.396Z,45.06
2022-12-13T10:06:40.582Z,44.91
2022-12-13T10:11:34.442Z,45.62
2022-12-13T10:16:42.977Z,45.46
2022-12-13T10:21:40.514Z,45.73
2022-12-13T10:26:38.243Z,45.21
2022-12-13T10:31:44.274Z,44.81
2022-12-13T10:36:43.872Z,44.30
2022-12-13T10:41:40.880Z,43.97
2022-12-13T10:46:38.574Z,43.90
2022-12-13T10:51:40.362Z,44.25
2022-12-13T10:56:36.921Z,44.63
2022-12-13T11:01:29.712Z,44.37
2022-12-13T11:06:28.667Z,44.16
2022-12-13T11:11:30.413Z,44.25
2022-12-13T11:16:49.739Z,44.51
2022-12-13T11:21:55.092Z,44.36
2022-12-13T11:26:54.457Z,44.92
2022-12-13T11:32:28.286Z,45.56
2022-12-13T11:37:43.106Z,47.08
2022-12-13T11:42:46.847Z,47.78
2022-12-13T11:47:49.318Z,48.44
2022-12-13T11:52:51.538Z,47.93
2022-12-13T11:57:49.865Z,48.00
2022-12-13T12:02:50.009Z,49.04
2022-12-13T12:08:21.044Z,48.54
2022-12-13T12:13:33.423Z,48.14
2022-12-13T12:18:28.846Z,47.82
2022-12-13T12:23:45.279Z,47.80
2022-12-13T12:29:13.837Z,47.44
2022-12-13T12:34:16.251Z,47.43
2022-12-13T12:40:08.006Z,47.04
2022-12-13T12:45:57.750Z,46.56
2022-12-13T12:51:07.618Z,46.44
2022-12-13T12:56:16.710Z,46.69
2022-12-13T13:01:27.902Z,46.56
2022-12-13T13:06:29.791Z,46.60
2022-12-13T13:11:44.842Z,46.40
2022-12-13T13:16:42.344Z,46.04
2022-12-13T13:21:41.484Z,46.26
2022-12-13T13:26:40.293Z,46.52
2022-12-13T13:32:12.103Z,45.98
2022-12-13T13:37:23.147Z,46.18
2022-12-13T13:42:20.316Z,46.14
2022-12-13T13:47:16.427Z,46.26
2022-12-13T13:52:25.939Z,45.87
2022-12-13T13:58:10.474Z,45.76
2022-12-13T14:03:57.785Z,46.14
2022-12-13T14:09:27.978Z,47.79
2022-12-13T14:15:02.726Z,48.30
2022-12-13T14:20:21.506Z,48.13
2022-12-13T14:25:40.622Z,48.26
2022-12-13T14:30:42.611Z,47.58
2022-12-13T14:35:55.581Z,47.56
2022-12-13T14:40:51.135Z,47.53
2022-12-13T14:45:45.012Z,47.33
2022-12-13T14:50:40.549Z,47.14
2022-12-13T14:55:36.965Z,46.95
2022-12-13T15:00:40.104Z,47.16
2022-12-13T15:05:45.708Z,47.02
2022-12-13T15:10:49.050Z,47.11
2022-12-13T15:15:42.210Z,46.89
2022-12-13T15:20:40.866Z,46.94
2022-12-13T15:25:36.264Z,46.80
2022-12-13T15:30:32.978Z,46.73
2022-12-13T15:35:28.633Z,46.46
2022-12-13T15:40:22.585Z,46.50
2022-12-13T15:45:27.416Z,46.32
2022-12-13T15:50:37.593Z,46.10
2022-12-13T15:55:36.656Z,46.28
2022-12-13T16:00:50.812Z,46.39
2022-12-13T16:06:07.023Z,46.09
2022-12-13T16:11:01.106Z,46.17
2022-12-13T16:15:59.791Z,46.06
2022-12-13T16:20:54.530Z,46.33
2022-12-13T16:25:47.670Z,45.88
2022-12-13T16:30:59.984Z,46.14
2022-12-13T16:35:54.321Z,46.19
2022-12-13T16:40:49.056Z,46.04
2022-12-13T16:45:44.669Z,46.01
2022-12-13T16:50:38.982Z,46.04
2022-12-13T16:55:32.570Z,45.85
2022-12-13T17:00:26.932Z,45.74
2022-12-13T17:05:20.718Z,45.90
2022-12-13T17:10:13.637Z,45.66
2022-12-13T17:15:06.926Z,45.69
2022-12-13T17:20:00.991Z,45.79
2022-12-13T17:24:55.216Z,45.80
2022-12-13T17:29:49.847Z,45.43
2022-12-13T17:34:45.239Z,45.28
2022-12-13T17:39:39.319Z,45.57
2022-12-13T17:44:33.113Z,45.74
2022-12-13T17:49:26.130Z,45.76
2022-12-13T17:54:20.190Z,45.58
2022-12-13T17:59:15.376Z,45.61
2022-12-13T18:04:08.706Z,45.45
2022-12-13T18:09:02.879Z,45.49
2022-12-13T18:13:56.720Z,45.68
2022-12-13T18:18:55.190Z,45.57
2022-12-13T18:23:55.183Z,45.84
2022-12-13T18:28:49.457Z,46.02
2022-12-13T18:33:47.431Z,45.37
2022-12-13T18:38:43.056Z,38.83
2022-12-13T18:43:39.060Z,35.76
2022-12-13T18:48:33.039Z,35.71
2022-12-13T18:53:27.597Z,35.83
2022-12-13T18:58:21.230Z,35.60
2022-12-13T19:03:15.048Z,35.79
2022-12-13T19:08:09.361Z,36.03
2022-12-13T19:13:02.418Z,39.13
2022-12-13T19:17:55.902Z,39.61
2022-12-13T19:22:49.645Z,40.26
2022-12-13T19:27:47.342Z,40.17
2022-12-13T19:32:40.329Z,40.87
2022-12-13T19:37:39.921Z,40.68
2022-12-13T19:42:33.933Z,41.51
2022-12-13T19:47:28.291Z,41.73
2022-12-13T19:52:21.180Z,42.22
2022-12-13T19:57:15.303Z,43.04
2022-12-13T20:02:11.482Z,43.54
2022-12-13T20:07:05.581Z,43.61
2022-12-13T20:12:00.083Z,43.56
2022-12-13T20:16:53.559Z,43.74
2022-12-13T20:21:46.978Z,43.88
2022-12-13T20:26:40.699Z,43.18
2022-12-13T20:31:36.041Z,42.99
2022-12-13T20:36:29.285Z,42.59
2022-12-13T20:41:22.599Z,43.02
2022-12-13T20:46:16.578Z,43.00
2022-12-13T20:51:11.374Z,43.56
2022-12-13T20:56:09.322Z,43.72
2022-12-13T21:01:01.976Z,43.78
2022-12-13T21:05:55.582Z,44.17
2022-12-13T21:10:48.829Z,45.36
2022-12-13T21:15:41.971Z,45.98
2022-12-13T21:20:35.374Z,46.25
2022-12-13T21:25:29.502Z,46.20
2022-12-13T21:30:23.118Z,46.79
2022-12-13T21:35:17.004Z,47.15
2022-12-13T21:40:18.126Z,47.51
2022-12-13T21:45:12.688Z,48.24
2022-12-13T21:50:08.157Z,48.22
2022-12-13T21:55:30.350Z,48.76
2022-12-13T22:00:15.215Z,49.46
2022-12-13T22:05:12.141Z,49.18
2022-12-13T22:10:07.284Z,49.28
2022-12-13T22:15:00.590Z,49.74
2022-12-13T22:19:54.480Z,50.29
2022-12-13T22:24:53.433Z,50.21
2022-12-13T22:29:46.909Z,50.58
2022-12-13T22:34:40.692Z,50.92
2022-12-13T22:39:33.811Z,51.03
2022-12-13T22:44:26.078Z,51.09
2022-12-13T22:49:20.112Z,51.36
2022-12-13T22:54:15.037Z,51.37
2022-12-13T22:59:08.632Z,51.98
2022-12-13T23:04:03.038Z,52.11
2022-12-13T23:08:58.556Z,52.07
2022-12-13T23:13:55.151Z,52.41
2022-12-13T23:18:49.011Z,52.27
2022-12-13T23:23:41.853Z,52.49
2022-12-13T23:28:34.861Z,52.38
2022-12-13T23:33:28.346Z,52.50
2022-12-13T23:38:21.470Z,52.79
2022-12-13T23:43:14.861Z,52.49
2022-12-13T23:48:08.498Z,52.82
2022-12-13T23:53:02.061Z,52.79
2022-12-13T23:57:55.095Z,52.92
